74V

Roosevelt Municipal Airport

Roosevelt, Utah, USA
METAR K74V 182215Z AUTO 26014G19KT 10SM CLR 37/00 A3011 RMK AO2
Observed Flight Rules
Jul-18 @ 22:15 UTC (15 minutes ago) Visual Flight Rules
Wind Visibility Clouds
260° at 14 knots
 Gusting to 19 knots
10 miles
  • Clear skies
Temperatures Readings
Current 37°C / 99°F
Dewpoint 0°C / 32°F
Humidity 10%
Altimeter 30.11" Hg
Pressure 1020 hPa
Elevation 1576
METAR K74V 182215Z AUTO 26014G19KT 10SM CLR 37/00 A3011 RMK AO2
Observed Flight Rules
Jul-18 @ 22:15 UTC
(15 minutes ago)
VFR
Wind Visibility
260° at 14 knots
 Gusting to 19 knots
10 miles
Clouds
  • Clear skies
Temperature Dewpoint
37°C / 99°F 0°C / 32°F
Humidity Altimeter Pressure
10% 30.11" Hg 1020 hPa